Time;durP1;ratioP1;P1;durP2;ratioP2;P2;SDS_P1;SDS_P2;PMS_P1;PMS_P2;Temp;Humidity;BMP_temperature;BMP_pressure;BME280_temperature;BME280_humidity;BME280_pressure;Samples;Min_cycle;Max_cycle;Signal;HPM_P1;HPM_P2
2022/09/11 00:01:54;;;;;;;8.90;3.40;;;;;16.10;97115.20;;;;110895;1250;41143;-62
2022/09/11 00:04:25;;;;;;;7.50;3.40;;;;;16.10;97113.40;;;;110613;1250;41136;-62
2022/09/11 00:06:54;;;;;;;7.60;3.00;;;;;16.10;97107.20;;;;110741;1250;41157;-62
2022/09/11 00:09:25;;;;;;;5.90;2.40;;;;;16.10;97104.40;;;;110734;1250;41134;-62
2022/09/11 00:11:56;;;;;;;6.10;2.50;;;;;16.00;97100.00;;;;110767;1249;41163;-62
2022/09/11 00:14:27;;;;;;;8.20;2.30;;;;;16.00;97101.20;;;;110977;1250;41604;-62
2022/09/11 00:16:58;;;;;;;5.50;2.30;;;;;16.00;97099.80;;;;110932;1249;41149;-63
2022/09/11 00:19:27;;;;;;;6.00;2.20;;;;;16.00;97100.00;;;;110758;1250;41495;-63
2022/09/11 00:21:57;;;;;;;6.50;2.50;;;;;16.00;97097.00;;;;110815;1250;41473;-63
2022/09/11 00:24:26;;;;;;;7.80;3.10;;;;;16.00;97102.20;;;;110819;1250;41226;-63
2022/09/11 00:26:57;;;;;;;9.50;3.30;;;;;16.00;97105.40;;;;110892;1249;41672;-63
2022/09/11 00:29:28;;;;;;;9.40;3.70;;;;;16.00;97107.40;;;;109451;1250;1713025;-63
2022/09/11 00:31:59;;;;;;;7.60;3.20;;;;;15.90;97107.60;;;;110967;1250;41145;-63
2022/09/11 00:34:30;;;;;;;8.30;3.80;;;;;15.90;97107.80;;;;110867;1250;41153;-62
2022/09/11 00:37:02;;;;;;;9.10;3.50;;;;;15.80;97102.00;;;;110914;1250;41249;-62
2022/09/11 00:39:32;;;;;;;8.80;3.40;;;;;15.80;97098.20;;;;110952;1250;41183;-62
2022/09/11 00:42:02;;;;;;;7.50;2.70;;;;;15.70;97096.20;;;;110917;1249;41248;-62
2022/09/11 00:44:31;;;;;;;5.60;2.20;;;;;15.70;97104.00;;;;110898;1250;41464;-62
2022/09/11 00:47:07;;;;;;;5.70;2.10;;;;;15.70;97103.20;;;;110995;1250;41378;-62
2022/09/11 00:49:42;;;;;;;4.80;1.90;;;;;15.70;97102.80;;;;110808;1250;41143;-62
2022/09/11 00:52:26;;;;;;;4.30;2.10;;;;;15.70;97098.00;;;;110794;1250;42102;-62
2022/09/11 00:54:59;;;;;;;6.50;2.60;;;;;15.70;97100.20;;;;110849;1249;41605;-62
2022/09/11 00:57:35;;;;;;;4.60;2.10;;;;;15.66;97101.20;;;;110739;1250;41658;-62
2022/09/11 01:00:08;;;;;;;5.30;2.10;;;;;15.60;97102.80;;;;110944;1250;41149;-63
2022/09/11 01:02:41;;;;;;;5.50;2.20;;;;;15.60;97098.20;;;;110843;1251;41717;-62
2022/09/11 01:05:15;;;;;;;5.90;2.40;;;;;15.60;97094.80;;;;110887;1250;41308;-62
2022/09/11 01:07:46;;;;;;;4.10;2.00;;;;;15.60;97092.60;;;;110729;1250;41264;-62
2022/09/11 01:10:17;;;;;;;6.60;2.10;;;;;15.50;97092.20;;;;110956;1248;41138;-62
2022/09/11 01:13:08;;;;;;;6.20;2.50;;;;;15.50;97093.00;;;;110958;1250;41163;-62
2022/09/11 01:16:02;;;;;;;6.00;2.20;;;;;15.50;97094.00;;;;110855;1251;41910;-62
2022/09/11 01:18:56;;;;;;;3.90;2.00;;;;;15.50;97095.40;;;;110912;1249;41162;-63
2022/09/11 01:21:40;;;;;;;4.80;2.20;;;;;15.46;97097.40;;;;110880;1250;41133;-63
2022/09/11 01:24:52;;;;;;;3.60;1.80;;;;;15.40;97100.40;;;;110743;1251;41148;-63
2022/09/11 01:27:52;;;;;;;6.50;2.60;;;;;15.44;97103.60;;;;110716;1250;41614;-63
2022/09/11 01:30:27;;;;;;;7.30;3.00;;;;;15.50;97112.00;;;;110764;1250;41605;-63
2022/09/11 01:33:05;;;;;;;8.90;2.60;;;;;15.50;97109.20;;;;110850;1250;41254;-62
2022/09/11 01:35:44;;;;;;;6.20;2.40;;;;;15.50;97107.60;;;;110761;1251;41268;-62
2022/09/11 01:38:26;;;;;;;5.50;2.20;;;;;15.50;97108.20;;;;110970;1250;41246;-62
2022/09/11 01:41:16;;;;;;;6.00;2.40;;;;;15.50;97102.40;;;;110776;1250;41588;-63
2022/09/11 01:43:56;;;;;;;5.70;2.70;;;;;15.54;97097.80;;;;110819;1250;41614;-63
2022/09/11 01:46:27;;;;;;;6.50;2.80;;;;;15.60;97095.60;;;;110813;1250;42151;-63
2022/09/11 01:49:04;;;;;;;7.30;3.00;;;;;15.60;97092.20;;;;110729;1251;41259;-63
2022/09/11 01:51:39;;;;;;;7.00;2.50;;;;;15.60;97100.60;;;;110695;1250;41153;-63
2022/09/11 01:54:17;;;;;;;11.00;3.40;;;;;15.60;97105.60;;;;110900;1250;41791;-63
2022/09/11 01:56:59;;;;;;;8.60;3.80;;;;;15.60;97106.60;;;;110936;1249;41931;-64
2022/09/11 01:59:42;;;;;;;10.70;3.50;;;;;15.60;97103.40;;;;110809;1250;41901;-64
2022/09/11 02:02:19;;;;;;;8.90;3.70;;;;;15.50;97099.60;;;;110903;1250;41147;-63
2022/09/11 02:05:02;;;;;;;8.40;2.90;;;;;15.50;97102.20;;;;110692;1250;41725;-63
2022/09/11 02:07:54;;;;;;;5.20;2.20;;;;;15.50;97105.00;;;;110593;1250;41943;-63
2022/09/11 02:10:35;;;;;;;7.50;2.70;;;;;15.50;97106.20;;;;110652;1250;42221;-62
2022/09/11 02:13:12;;;;;;;7.70;3.20;;;;;15.50;97094.80;;;;110856;1250;41904;-63
2022/09/11 02:15:45;;;;;;;6.30;2.40;;;;;15.50;97094.20;;;;110888;1249;41145;-65
2022/09/11 02:18:24;;;;;;;8.10;3.20;;;;;15.50;97088.80;;;;110875;1251;41772;-63
2022/09/11 02:20:54;;;;;;;8.00;3.50;;;;;15.50;97086.80;;;;110764;1250;41153;-63
2022/09/11 02:23:24;;;;;;;9.80;3.80;;;;;15.46;97082.20;;;;110858;1249;41916;-62
2022/09/11 02:25:54;;;;;;;8.40;3.40;;;;;15.40;97073.00;;;;110755;1250;41248;-63
2022/09/11 02:28:25;;;;;;;11.20;4.10;;;;;15.40;97069.20;;;;110794;1250;41254;-62
2022/09/11 02:30:57;;;;;;;9.00;3.20;;;;;15.40;97068.80;;;;110593;1251;41645;-63
2022/09/11 02:33:35;;;;;;;10.50;3.40;;;;;15.40;97068.80;;;;110601;1250;41152;-62
2022/09/11 02:36:34;;;;;;;6.80;2.70;;;;;15.40;97065.60;;;;110701;1250;41146;-62
2022/09/11 02:39:30;;;;;;;5.20;2.20;;;;;15.40;97062.80;;;;110922;1250;40746;-63
2022/09/11 02:42:21;;;;;;;5.60;2.40;;;;;15.36;97060.00;;;;110561;1249;41310;-63
2022/09/11 02:45:07;;;;;;;13.30;2.90;;;;;15.30;97053.00;;;;110956;1250;41788;-63
2022/09/11 02:48:04;;;;;;;7.00;2.90;;;;;15.30;97042.60;;;;110708;1250;41255;-63
2022/09/11 02:50:37;;;;;;;19.00;3.90;;;;;15.20;97039.00;;;;110617;1251;41266;-62
2022/09/11 02:53:19;;;;;;;7.50;2.40;;;;;15.20;97040.40;;;;110681;1250;41548;-62
2022/09/11 02:56:09;;;;;;;17.50;3.40;;;;;15.18;97039.60;;;;110850;1250;41898;-62
2022/09/11 02:59:04;;;;;;;16.20;3.40;;;;;15.10;97042.80;;;;110951;1250;42156;-63
2022/09/11 03:01:58;;;;;;;57.60;4.00;;;;;15.08;97049.60;;;;110962;1249;41629;-63
2022/09/11 03:04:28;;;;;;;34.00;3.70;;;;;15.00;97041.40;;;;110839;1250;41138;-63
2022/09/11 03:06:58;;;;;;;34.50;3.10;;;;;15.00;97046.20;;;;110951;1250;41144;-62
2022/09/11 03:09:28;;;;;;;25.30;2.20;;;;;15.00;97049.20;;;;110843;1250;41628;-62
2022/09/11 03:12:02;;;;;;;8.10;2.20;;;;;15.00;97048.20;;;;110908;1251;41629;-62
2022/09/11 03:14:33;;;;;;;9.90;2.70;;;;;15.00;97050.60;;;;110893;1251;41616;-62
2022/09/11 03:17:04;;;;;;;6.50;2.60;;;;;15.00;97048.00;;;;110861;1250;41383;-62
2022/09/11 03:19:35;;;;;;;6.90;2.90;;;;;15.00;97049.60;;;;110885;1251;42530;-63
2022/09/11 03:22:05;;;;;;;7.30;3.50;;;;;15.00;97053.20;;;;110884;1250;41129;-62
2022/09/11 03:24:34;;;;;;;22.60;4.70;;;;;15.00;97057.40;;;;110945;1250;41797;-62
2022/09/11 03:27:05;;;;;;;34.40;5.80;;;;;15.00;97058.40;;;;110929;1250;41476;-62
2022/09/11 03:29:36;;;;;;;50.40;4.80;;;;;14.90;97059.80;;;;110938;1250;41479;-63
2022/09/11 03:32:06;;;;;;;28.00;3.60;;;;;14.90;97061.60;;;;110909;1251;41127;-63
2022/09/11 03:34:36;;;;;;;19.90;3.30;;;;;14.90;97058.60;;;;110896;1250;41143;-61
2022/09/11 03:37:05;;;;;;;39.10;3.50;;;;;14.80;97063.20;;;;110955;1250;41203;-63
2022/09/11 03:39:36;;;;;;;;;;;;;14.80;97058.00;;;;110780;1250;42381;-63
2022/09/11 03:42:05;;;;;;;8.10;2.80;;;;;14.70;97053.80;;;;110932;1250;41207;-63
2022/09/11 03:44:35;;;;;;;5.20;2.40;;;;;14.70;97063.40;;;;110812;1250;41819;-61
2022/09/11 03:47:06;;;;;;;4.90;2.20;;;;;14.80;97060.60;;;;110832;1248;41439;-62
2022/09/11 03:49:38;;;;;;;5.70;2.00;;;;;14.80;97069.40;;;;110867;1250;41612;-62
2022/09/11 03:52:07;;;;;;;11.00;3.00;;;;;14.80;97073.00;;;;110925;1250;41421;-63
2022/09/11 03:54:38;;;;;;;9.90;2.90;;;;;14.80;97070.20;;;;110866;1251;41313;-62
2022/09/11 03:57:08;;;;;;;6.10;2.60;;;;;14.80;97069.00;;;;110660;1250;41261;-62
2022/09/11 03:59:39;;;;;;;39.70;4.30;;;;;14.82;97068.60;;;;110962;1250;41266;-62
2022/09/11 04:02:09;;;;;;;30.00;2.90;;;;;14.90;97066.20;;;;110843;1250;42584;-63
2022/09/11 04:04:40;;;;;;;9.80;3.10;;;;;14.90;97064.40;;;;110857;1251;42571;-63
2022/09/11 04:07:10;;;;;;;19.90;3.60;;;;;14.90;97061.00;;;;110951;1250;41374;-63
2022/09/11 04:09:39;;;;;;;7.60;2.60;;;;;14.94;97059.60;;;;110861;1250;42598;-63
2022/09/11 04:12:11;;;;;;;23.10;2.60;;;;;14.96;97055.00;;;;110995;1250;42212;-63
2022/09/11 04:14:41;;;;;;;9.30;2.50;;;;;15.00;97052.40;;;;110883;1248;41135;-62
2022/09/11 04:17:11;;;;;;;18.10;3.10;;;;;15.00;97049.00;;;;110966;1250;41139;-62
2022/09/11 04:19:42;;;;;;;22.70;2.70;;;;;15.00;97056.20;;;;110954;1249;41268;-63
2022/09/11 04:22:11;;;;;;;23.10;2.80;;;;;15.00;97057.20;;;;110831;1251;41130;-63
2022/09/11 04:24:40;;;;;;;9.60;2.50;;;;;15.00;97063.60;;;;110688;1250;41724;-63
2022/09/11 04:27:11;;;;;;;23.10;3.00;;;;;15.10;97065.20;;;;110885;1250;42395;-63
2022/09/11 04:29:41;;;;;;;;;;;;;15.12;97066.60;;;;110802;1250;41247;-63
2022/09/11 04:32:12;;;;;;;22.10;2.60;;;;;15.20;97063.40;;;;110790;1250;42156;-62
2022/09/11 04:34:41;;;;;;;17.30;3.20;;;;;15.20;97069.80;;;;110681;1250;41616;-62
2022/09/11 04:37:10;;;;;;;25.70;2.70;;;;;15.24;97073.60;;;;110899;1250;41314;-62
2022/09/11 04:39:41;;;;;;;8.40;2.30;;;;;15.28;97077.40;;;;110955;1250;41957;-63
2022/09/11 04:42:10;;;;;;;23.80;4.10;;;;;15.30;97078.80;;;;110863;1250;41857;-63
2022/09/11 04:44:39;;;;;;;16.30;3.20;;;;;15.30;97083.00;;;;110907;1250;41669;-63
2022/09/11 04:47:08;;;;;;;7.20;2.30;;;;;15.30;97082.80;;;;110874;1250;41132;-63
2022/09/11 04:49:38;;;;;;;6.90;2.40;;;;;15.30;97082.00;;;;110933;1249;41260;-63
2022/09/11 04:52:08;;;;;;;21.50;2.60;;;;;15.40;97078.60;;;;110954;1249;41618;-63
2022/09/11 04:54:39;;;;;;;30.60;2.50;;;;;15.40;97075.00;;;;110926;1250;42079;-63
2022/09/11 04:57:09;;;;;;;8.70;2.70;;;;;15.40;97076.20;;;;110930;1250;41159;-63
2022/09/11 04:59:39;;;;;;;5.10;2.00;;;;;15.40;97081.00;;;;110896;1249;41250;-63
2022/09/11 05:02:18;;;;;;;9.10;2.20;;;;;15.50;97085.00;;;;110911;1250;41152;-62
2022/09/11 05:04:49;;;;;;;5.40;2.10;;;;;15.50;97086.40;;;;110809;1251;41581;-63
2022/09/11 05:07:18;;;;;;;4.50;1.90;;;;;15.56;97088.80;;;;110864;1250;41187;-63
2022/09/11 05:09:48;;;;;;;8.70;2.60;;;;;15.60;97090.40;;;;110779;1251;41147;-62
2022/09/11 05:12:19;;;;;;;7.80;2.70;;;;;15.60;97093.00;;;;110917;1250;41137;-63
2022/09/11 05:26:03;;;;;;;6.80;2.80;;;;;16.24;97091.00;;;;107457;1286;581699;-64
2022/09/11 05:28:33;;;;;;;7.40;2.90;;;;;16.30;97093.80;;;;108666;1258;1762748;-62
2022/09/11 05:31:10;;;;;;;6.70;2.70;;;;;16.20;97102.00;;;;110231;1257;41354;-63
2022/09/11 05:33:39;;;;;;;8.20;3.70;;;;;16.20;97097.00;;;;110124;1260;41152;-63
2022/09/11 05:36:09;;;;;;;8.70;3.80;;;;;16.10;97098.20;;;;110313;1258;42466;-63
2022/09/11 05:38:38;;;;;;;8.70;3.90;;;;;16.00;97095.00;;;;110117;1257;42397;-62
2022/09/11 05:41:10;;;;;;;8.70;3.80;;;;;16.00;97095.40;;;;110120;1260;41772;-62
2022/09/11 05:43:40;;;;;;;8.20;3.00;;;;;16.00;97095.00;;;;110129;1257;41626;-63
2022/09/11 05:46:14;;;;;;;7.50;3.30;;;;;16.08;97098.20;;;;110259;1257;41940;-63
2022/09/11 05:48:43;;;;;;;8.00;3.50;;;;;16.20;97094.60;;;;110191;1257;41143;-64
2022/09/11 05:51:14;;;;;;;9.50;4.00;;;;;16.36;97085.40;;;;110113;1257;41156;-63
2022/09/11 05:53:44;;;;;;;7.30;3.20;;;;;16.44;97089.20;;;;110123;1260;41279;-62
2022/09/11 05:56:16;;;;;;;8.90;3.60;;;;;16.72;97086.60;;;;110587;1254;41253;-63
2022/09/11 05:58:46;;;;;;;8.10;3.50;;;;;16.98;97072.80;;;;110602;1251;41130;-64
2022/09/11 06:01:17;;;;;;;7.60;3.10;;;;;17.60;97082.40;;;;110800;1250;41285;-62
2022/09/11 06:03:48;;;;;;;6.50;3.00;;;;;17.90;97079.80;;;;110590;1251;41149;-63
2022/09/11 06:06:19;;;;;;;;;;;;;17.96;97072.20;;;;110621;1251;41178;-62
2022/09/11 06:08:50;;;;;;;8.90;3.30;;;;;18.00;97073.80;;;;110847;1251;41149;-63
2022/09/11 06:11:20;;;;;;;6.50;2.80;;;;;18.10;97072.00;;;;110581;1251;41612;-63
2022/09/11 06:13:50;;;;;;;6.40;2.70;;;;;18.20;97074.80;;;;110878;1253;42374;-63
2022/09/11 06:16:21;;;;;;;7.50;3.20;;;;;18.40;97076.40;;;;110819;1253;40726;-62
2022/09/11 06:18:51;;;;;;;7.60;3.20;;;;;18.14;97075.00;;;;110545;1253;41296;-63
2022/09/11 06:21:22;;;;;;;7.70;3.30;;;;;17.90;97078.40;;;;110581;1254;41615;-62
2022/09/11 06:24:01;;;;;;;7.50;3.20;;;;;17.90;97079.20;;;;110556;1251;42235;-63
2022/09/11 06:26:30;;;;;;;7.00;2.90;;;;;17.82;97081.20;;;;110503;1252;41276;-63
2022/09/11 06:28:59;;;;;;;5.90;2.60;;;;;17.80;97076.20;;;;110570;1253;41695;-63
2022/09/11 06:31:28;;;;;;;6.70;2.70;;;;;18.12;97059.00;;;;110452;1253;41279;-63
2022/09/11 06:33:57;;;;;;;7.50;3.20;;;;;18.60;97066.00;;;;110476;1253;41980;-63
2022/09/11 06:36:28;;;;;;;7.20;3.10;;;;;18.72;97058.80;;;;110565;1251;41771;-63
2022/09/11 06:38:58;;;;;;;7.40;3.10;;;;;18.80;97058.40;;;;110619;1251;41146;-63
2022/09/11 06:41:29;;;;;;;8.00;3.40;;;;;18.80;97054.80;;;;110624;1250;41188;-63
2022/09/11 06:44:03;;;;;;;6.70;3.00;;;;;18.90;97054.20;;;;110778;1251;41421;-63
2022/09/11 06:46:34;;;;;;;7.50;3.30;;;;;19.00;97055.00;;;;110699;1250;41369;-63
2022/09/11 06:49:03;;;;;;;8.00;3.20;;;;;19.10;97054.40;;;;110562;1253;41820;-62
2022/09/11 06:51:33;;;;;;;6.60;3.00;;;;;19.10;97050.80;;;;110722;1251;41154;-63
2022/09/11 06:54:04;;;;;;;7.40;3.10;;;;;18.94;97056.60;;;;110551;1253;41266;-63
2022/09/11 06:56:33;;;;;;;;;;;;;18.82;97059.80;;;;110577;1252;41530;-63
2022/09/11 06:59:02;;;;;;;5.80;2.70;;;;;18.80;97060.60;;;;110411;1253;41727;-63
2022/09/11 07:01:32;;;;;;;6.70;2.90;;;;;18.70;97061.60;;;;110619;1251;41136;-63
2022/09/11 07:04:02;;;;;;;7.20;2.70;;;;;18.82;97054.40;;;;110595;1250;41198;-63
2022/09/11 07:06:34;;;;;;;7.40;3.00;;;;;19.00;97052.80;;;;110600;1251;41151;-63
2022/09/11 07:09:03;;;;;;;7.10;3.40;;;;;19.10;97052.80;;;;110699;1251;41634;-64
2022/09/11 07:11:45;;;;;;;7.90;2.90;;;;;19.00;97053.00;;;;110863;1251;41253;-63
2022/09/11 07:14:19;;;;;;;8.40;3.20;;;;;18.90;97055.80;;;;110733;1250;41257;-63
2022/09/11 07:16:53;;;;;;;6.70;3.00;;;;;18.94;97056.40;;;;110585;1251;41169;-64
2022/09/11 07:19:24;;;;;;;8.70;3.20;;;;;19.00;97054.00;;;;110746;1251;41149;-64
2022/09/11 07:21:53;;;;;;;8.20;3.40;;;;;19.10;97057.40;;;;110703;1251;41245;-63
2022/09/11 07:24:23;;;;;;;7.00;3.20;;;;;19.30;97054.80;;;;110604;1251;41713;-63
2022/09/11 07:26:53;;;;;;;7.00;2.90;;;;;19.98;97048.40;;;;110662;1251;41334;-63
2022/09/11 07:29:28;;;;;;;7.10;2.90;;;;;20.50;97046.60;;;;110795;1251;41412;-63
2022/09/11 07:31:57;;;;;;;10.90;3.40;;;;;20.60;97043.20;;;;110573;1251;41193;-63
2022/09/11 07:34:27;;;;;;;8.60;3.30;;;;;20.94;97037.40;;;;110526;1251;41164;-63
2022/09/11 07:36:55;;;;;;;6.50;2.90;;;;;21.42;97035.40;;;;110686;1251;41146;-65
2022/09/11 07:39:25;;;;;;;9.00;3.10;;;;;21.50;97037.60;;;;110857;1251;41168;-64
2022/09/11 07:41:59;;;;;;;5.30;2.30;;;;;22.00;97039.40;;;;110740;1251;41263;-64
2022/09/11 07:44:30;;;;;;;7.40;2.80;;;;;22.58;97032.20;;;;110689;1251;41726;-63
2022/09/11 07:46:59;;;;;;;7.00;2.70;;;;;23.46;97030.20;;;;110455;1252;41146;-64
2022/09/11 07:49:30;;;;;;;5.40;2.20;;;;;24.06;97035.60;;;;110709;1251;41371;-63
2022/09/11 07:51:59;;;;;;;7.00;2.40;;;;;23.94;97025.40;;;;110748;1251;42163;-63
2022/09/11 07:54:35;;;;;;;4.40;1.80;;;;;24.50;97021.20;;;;110723;1251;41150;-64
2022/09/11 07:57:06;;;;;;;3.60;1.90;;;;;24.26;97025.40;;;;110764;1251;41153;-64
2022/09/11 07:59:34;;;;;;;5.90;2.10;;;;;24.10;97022.60;;;;110615;1253;41394;-64
2022/09/11 08:02:04;;;;;;;4.70;1.80;;;;;24.20;97023.00;;;;110636;1250;41143;-64
2022/09/11 08:04:33;;;;;;;6.50;1.90;;;;;23.88;97030.40;;;;110640;1250;41155;-64
2022/09/11 08:07:02;;;;;;;5.90;2.10;;;;;23.28;97030.40;;;;110604;1251;41242;-63
2022/09/11 08:09:33;;;;;;;2.40;1.40;;;;;22.90;97025.80;;;;110630;1251;41185;-63
2022/09/11 08:12:05;;;;;;;6.60;2.10;;;;;23.10;97026.80;;;;110669;1251;41145;-64
2022/09/11 08:14:37;;;;;;;4.20;1.70;;;;;23.30;97028.40;;;;110655;1251;41755;-64
2022/09/11 08:17:15;;;;;;;5.50;1.80;;;;;23.60;97030.20;;;;110637;1251;41269;-64
2022/09/11 08:19:44;;;;;;;4.40;2.10;;;;;23.96;97026.20;;;;110571;1251;41625;-64
2022/09/11 08:22:13;;;;;;;5.20;2.10;;;;;24.52;97024.60;;;;110831;1251;41488;-64
2022/09/11 08:24:44;;;;;;;4.00;1.90;;;;;24.34;97021.20;;;;110677;1251;41634;-64
2022/09/11 08:27:15;;;;;;;7.00;2.50;;;;;23.90;97024.40;;;;110682;1251;41140;-64
2022/09/11 08:29:45;;;;;;;5.40;2.20;;;;;23.24;97029.80;;;;110608;1251;41642;-63
2022/09/11 08:32:14;;;;;;;5.30;2.20;;;;;23.10;97029.20;;;;110517;1253;41146;-64
2022/09/11 08:34:45;;;;;;;5.40;2.00;;;;;23.84;97026.40;;;;110708;1251;41671;-64
2022/09/11 08:37:14;;;;;;;4.20;1.90;;;;;24.84;97023.00;;;;110544;1253;41169;-63
2022/09/11 08:39:43;;;;;;;4.70;1.70;;;;;26.12;97015.00;;;;110755;1252;41618;-65
2022/09/11 08:42:14;;;;;;;3.80;1.80;;;;;26.60;97016.00;;;;110548;1253;41162;-64
2022/09/11 08:44:50;;;;;;;3.80;1.90;;;;;27.56;97022.60;;;;110549;1253;41632;-65
2022/09/11 08:47:52;;;;;;;6.30;1.80;;;;;28.40;97011.80;;;;110567;1252;41242;-64
2022/09/11 08:50:35;;;;;;;4.90;1.70;;;;;27.40;97018.60;;;;110716;1250;41790;-64
2022/09/11 08:53:07;;;;;;;4.30;1.70;;;;;26.80;97015.40;;;;110567;1253;41301;-65
2022/09/11 08:55:47;;;;;;;4.60;1.80;;;;;26.66;97023.80;;;;110786;1252;41152;-64
2022/09/11 08:58:25;;;;;;;5.40;1.90;;;;;26.30;97013.60;;;;110487;1253;41397;-64
2022/09/11 09:01:28;;;;;;;3.50;1.80;;;;;27.18;97007.60;;;;110512;1251;42242;-64
2022/09/11 09:04:22;;;;;;;3.80;1.80;;;;;28.36;97007.80;;;;110768;1251;41144;-64
2022/09/11 09:07:04;;;;;;;2.10;1.40;;;;;29.40;97002.60;;;;110493;1251;41254;-64
2022/09/11 09:09:49;;;;;;;5.60;2.00;;;;;29.28;97008.20;;;;110613;1251;41168;-64
2022/09/11 09:12:33;;;;;;;3.70;1.40;;;;;28.50;96999.00;;;;110748;1251;41804;-65
2022/09/11 09:15:05;;;;;;;4.90;1.80;;;;;28.06;97012.80;;;;110722;1251;42044;-65
2022/09/11 09:17:45;;;;;;;3.70;1.70;;;;;27.02;97014.00;;;;110488;1253;41599;-64
2022/09/11 09:20:22;;;;;;;4.20;1.50;;;;;26.80;97004.80;;;;110879;1251;42166;-64
2022/09/11 09:22:58;;;;;;;2.00;1.30;;;;;27.42;97008.40;;;;110671;1250;41149;-65
2022/09/11 09:25:28;;;;;;;2.00;1.40;;;;;28.42;97003.40;;;;110657;1250;41445;-64
2022/09/11 09:27:59;;;;;;;;;;;;;28.42;96994.60;;;;110524;1253;41768;-65
2022/09/11 09:30:34;;;;;;;3.60;1.50;;;;;27.64;96996.80;;;;110532;1253;42080;-65
2022/09/11 09:33:29;;;;;;;5.30;1.50;;;;;26.64;97005.60;;;;110711;1251;41180;-65
2022/09/11 09:36:18;;;;;;;1.20;1.00;;;;;25.84;97003.80;;;;110545;1253;41178;-65
2022/09/11 09:38:48;;;;;;;2.00;1.30;;;;;26.00;96981.60;;;;110634;1251;41127;-64
2022/09/11 09:41:35;;;;;;;3.40;1.50;;;;;26.96;96966.00;;;;110645;1251;41157;-65
2022/09/11 09:44:16;;;;;;;2.00;1.20;;;;;28.14;96961.80;;;;110548;1252;41262;-65
2022/09/11 09:46:49;;;;;;;1.80;1.20;;;;;28.82;96958.40;;;;110696;1251;41896;-65
2022/09/11 09:49:33;;;;;;;2.60;1.00;;;;;29.54;96965.20;;;;110584;1251;41158;-65
2022/09/11 09:52:20;;;;;;;5.20;1.00;;;;;30.78;96959.20;;;;110690;1251;41232;-66
2022/09/11 09:54:59;;;;;;;1.60;0.90;;;;;31.74;96949.00;;;;110972;1249;41124;-65
2022/09/11 09:57:33;;;;;;;2.00;1.10;;;;;32.80;96950.40;;;;110933;1250;42835;-66
2022/09/11 10:00:08;;;;;;;1.20;0.90;;;;;32.50;96962.80;;;;111011;1247;41149;-65
2022/09/11 10:02:52;;;;;;;1.40;1.00;;;;;32.10;96962.80;;;;110933;1247;41153;-66
2022/09/11 10:05:33;;;;;;;1.40;0.70;;;;;32.32;96965.80;;;;111016;1247;41613;-65
2022/09/11 10:08:22;;;;;;;2.80;0.90;;;;;32.78;96962.60;;;;111075;1247;41608;-65
2022/09/11 10:10:56;;;;;;;2.50;0.90;;;;;33.00;96976.40;;;;110752;1251;41258;-66
2022/09/11 10:13:32;;;;;;;1.10;0.80;;;;;32.42;96970.60;;;;111116;1247;41157;-65
2022/09/11 10:16:03;;;;;;;1.60;0.90;;;;;32.52;96964.40;;;;110940;1247;41132;-65
2022/09/11 10:18:34;;;;;;;1.70;0.90;;;;;33.24;96970.20;;;;111064;1248;41144;-66
2022/09/11 10:21:12;;;;;;;2.00;0.90;;;;;33.50;96965.00;;;;111019;1248;41139;-65
2022/09/11 10:23:56;;;;;;;0.90;0.70;;;;;33.26;96968.80;;;;111012;1248;42029;-65
2022/09/11 10:26:37;;;;;;;1.70;0.90;;;;;32.26;96967.00;;;;110964;1250;41152;-64
2022/09/11 10:29:16;;;;;;;0.70;0.70;;;;;32.20;96970.40;;;;110949;1250;41120;-64
2022/09/11 10:31:50;;;;;;;1.70;1.00;;;;;32.24;96964.60;;;;110909;1248;41208;-65
2022/09/11 10:34:21;;;;;;;0.90;0.90;;;;;32.42;96968.60;;;;110910;1248;41257;-64
2022/09/11 10:37:00;;;;;;;1.20;0.90;;;;;32.40;96963.40;;;;111016;1249;41631;-66
2022/09/11 10:39:31;;;;;;;2.20;0.90;;;;;32.30;96962.00;;;;111022;1249;42882;-66
2022/09/11 10:42:26;;;;;;;1.00;0.70;;;;;32.60;96957.80;;;;110866;1249;41295;-67
2022/09/11 10:45:09;;;;;;;0.80;0.50;;;;;32.30;96953.40;;;;110822;1250;41258;-65
2022/09/11 10:47:37;;;;;;;1.00;0.70;;;;;32.58;96955.20;;;;111015;1249;41787;-65
2022/09/11 10:50:15;;;;;;;1.10;0.70;;;;;32.52;96954.20;;;;110994;1249;41149;-65
2022/09/11 10:52:47;;;;;;;0.70;0.60;;;;;32.76;96957.80;;;;110931;1249;41712;-65
2022/09/11 10:55:17;;;;;;;1.90;0.80;;;;;33.30;96955.20;;;;111002;1248;41504;-64
2022/09/11 10:58:01;;;;;;;4.00;1.20;;;;;33.50;96955.60;;;;111078;1247;41259;-65
2022/09/11 11:00:31;;;;;;;0.90;0.60;;;;;33.60;96962.40;;;;111077;1248;41271;-66
2022/09/11 11:03:05;;;;;;;1.30;0.80;;;;;33.38;96956.40;;;;111045;1248;41183;-66
2022/09/11 11:06:08;;;;;;;1.80;0.50;;;;;32.98;96952.60;;;;110840;1247;41215;-65
2022/09/11 11:08:58;;;;;;;0.80;0.70;;;;;32.86;96950.00;;;;111053;1247;41721;-66
2022/09/11 11:11:48;;;;;;;2.40;1.10;;;;;33.14;96958.00;;;;111013;1247;41259;-65
2022/09/11 11:14:22;;;;;;;2.40;1.00;;;;;33.38;96956.00;;;;110991;1249;41345;-65
2022/09/11 11:17:10;;;;;;;1.60;1.20;;;;;32.94;96966.20;;;;110964;1247;41264;-65
2022/09/11 11:19:52;;;;;;;1.70;1.00;;;;;31.50;96966.80;;;;110966;1250;41133;-65
2022/09/11 11:22:46;;;;;;;1.30;1.20;;;;;30.76;96971.60;;;;111017;1248;41665;-64
2022/09/11 11:25:16;;;;;;;1.20;1.10;;;;;29.62;96968.20;;;;110693;1249;41387;-64
2022/09/11 11:28:32;;;;;;;1.70;1.00;;;;;29.00;96971.80;;;;111034;1248;41137;-64
2022/09/11 11:31:14;;;;;;;2.50;1.00;;;;;29.02;96970.40;;;;111011;1247;41122;-64
2022/09/11 11:34:02;;;;;;;1.70;1.00;;;;;30.08;96965.60;;;;111033;1247;41708;-65
2022/09/11 11:36:52;;;;;;;2.20;1.10;;;;;31.34;96958.20;;;;110809;1250;42241;-65
2022/09/11 11:39:29;;;;;;;1.60;1.20;;;;;32.44;96953.60;;;;111008;1248;42129;-65
2022/09/11 11:42:03;;;;;;;3.50;1.10;;;;;33.72;96945.80;;;;111018;1248;41243;-65
2022/09/11 11:44:41;;;;;;;1.10;0.70;;;;;34.64;96938.60;;;;111061;1248;41250;-65
2022/09/11 11:47:10;;;;;;;1.70;0.90;;;;;35.50;96932.20;;;;111011;1248;41633;-65
2022/09/11 11:49:50;;;;;;;1.20;1.00;;;;;35.24;96930.60;;;;111034;1248;42532;-65
2022/09/11 11:52:28;;;;;;;;;;;;;34.30;96937.20;;;;110995;1247;41146;-65
2022/09/11 11:55:25;;;;;;;1.70;0.80;;;;;33.44;96938.40;;;;111007;1247;41156;-64
2022/09/11 11:58:06;;;;;;;1.80;1.00;;;;;33.04;96947.40;;;;110669;1250;41807;-64
2022/09/11 12:00:41;;;;;;;1.40;1.00;;;;;32.30;96950.00;;;;111007;1248;41948;-64
2022/09/11 12:03:24;;;;;;;2.30;0.90;;;;;30.92;96953.40;;;;111063;1248;41713;-64
2022/09/11 12:05:53;;;;;;;2.00;1.00;;;;;29.76;96958.20;;;;111037;1248;41256;-64
2022/09/11 12:08:22;;;;;;;0.90;0.80;;;;;29.10;96961.80;;;;110986;1247;41717;-64
2022/09/11 12:11:02;;;;;;;2.30;1.10;;;;;28.80;96956.20;;;;111032;1247;41268;-65
2022/09/11 12:13:34;;;;;;;1.10;0.90;;;;;28.16;96959.40;;;;111040;1247;41148;-64
2022/09/11 12:16:19;;;;;;;1.70;0.80;;;;;27.74;96959.00;;;;110990;1248;41591;-65
2022/09/11 12:19:03;;;;;;;1.90;1.00;;;;;27.26;96964.60;;;;110966;1249;41151;-64
2022/09/11 12:21:33;;;;;;;0.90;0.80;;;;;26.90;96960.40;;;;110999;1247;41193;-66
2022/09/11 12:24:04;;;;;;;1.90;1.20;;;;;26.64;96955.60;;;;111028;1249;41153;-65
2022/09/11 12:26:33;;;;;;;3.20;1.10;;;;;26.20;96966.00;;;;111016;1249;42050;-64
2022/09/11 12:29:14;;;;;;;1.00;0.90;;;;;25.90;96968.20;;;;111034;1247;41146;-66
2022/09/11 12:31:49;;;;;;;1.00;0.90;;;;;25.70;96969.40;;;;110981;1248;41241;-64
2022/09/11 12:34:44;;;;;;;1.60;1.20;;;;;25.40;96968.80;;;;110992;1250;41590;-63
2022/09/11 12:37:38;;;;;;;2.10;1.10;;;;;25.20;96970.00;;;;110732;1250;42262;-64
2022/09/11 12:40:19;;;;;;;2.10;1.20;;;;;24.98;96975.00;;;;110994;1248;41616;-64
2022/09/11 12:43:25;;;;;;;2.50;1.10;;;;;24.90;96974.80;;;;110970;1249;41278;-64
2022/09/11 12:45:55;;;;;;;2.10;1.10;;;;;24.70;96980.40;;;;110793;1250;41648;-64
2022/09/11 12:48:36;;;;;;;4.90;1.20;;;;;24.72;96988.40;;;;110826;1249;41146;-64
2022/09/11 12:51:05;;;;;;;;;;;;;24.34;96984.00;;;;110968;1249;41156;-64
2022/09/11 12:53:35;;;;;;;1.50;1.00;;;;;24.10;96982.00;;;;110767;1249;41886;-63
2022/09/11 12:56:06;;;;;;;1.90;1.20;;;;;24.20;96976.20;;;;110870;1250;41156;-64
2022/09/11 12:58:43;;;;;;;2.50;1.10;;;;;24.18;96978.20;;;;111042;1248;41236;-63
2022/09/11 13:01:24;;;;;;;2.40;1.20;;;;;24.00;96977.20;;;;111046;1248;41124;-64